createdAt,value
2024-02-19T00:01:14.311Z,0
2024-02-19T00:02:30.658Z,0
2024-02-19T00:03:47.008Z,0
2024-02-19T00:05:02.432Z,0
2024-02-19T00:06:17.000Z,0
2024-02-19T00:08:50.560Z,0
2024-02-19T00:11:23.273Z,0
2024-02-19T00:12:39.618Z,0
2024-02-19T00:13:55.983Z,0
2024-02-19T00:15:12.338Z,0
2024-02-19T00:16:28.678Z,0
2024-02-19T00:17:45.035Z,0
2024-02-19T00:20:17.749Z,0
2024-02-19T00:21:34.106Z,0
2024-02-19T00:22:49.504Z,0
2024-02-19T00:24:05.867Z,0
2024-02-19T00:25:22.227Z,0
2024-02-19T00:26:38.578Z,0
2024-02-19T00:27:54.926Z,0
2024-02-19T00:29:11.279Z,0
2024-02-19T00:30:27.649Z,0
2024-02-19T00:31:44.008Z,0
2024-02-19T00:33:00.354Z,0
2024-02-19T00:34:16.709Z,0
2024-02-19T00:35:33.068Z,0
2024-02-19T00:36:49.420Z,0
2024-02-19T00:38:04.847Z,0
2024-02-19T00:39:20.243Z,0
2024-02-19T00:40:36.604Z,0
2024-02-19T00:43:09.308Z,0
2024-02-19T00:44:25.660Z,0
2024-02-19T00:45:42.034Z,0
2024-02-19T00:46:58.389Z,0
2024-02-19T00:49:31.086Z,0
2024-02-19T00:50:47.456Z,0
2024-02-19T00:52:03.798Z,0
2024-02-19T00:54:36.515Z,0
2024-02-19T00:55:52.869Z,0
2024-02-19T00:57:08.299Z,0
2024-02-19T00:58:23.689Z,0
2024-02-19T01:00:56.402Z,0
2024-02-19T01:02:12.760Z,0
2024-02-19T01:03:29.109Z,0
2024-02-19T01:06:01.821Z,0
2024-02-19T01:07:18.196Z,0
2024-02-19T01:08:34.539Z,0
2024-02-19T01:09:50.899Z,0
2024-02-19T01:11:07.255Z,0
2024-02-19T01:12:23.610Z,0
2024-02-19T01:13:39.971Z,0
2024-02-19T01:14:56.310Z,0
2024-02-19T01:16:12.666Z,0
2024-02-19T01:17:28.068Z,0
2024-02-19T01:18:44.428Z,0
2024-02-19T01:20:00.784Z,0
2024-02-19T01:21:17.142Z,0
2024-02-19T01:23:49.864Z,0
2024-02-19T01:25:06.209Z,0
2024-02-19T01:26:22.573Z,0
2024-02-19T01:28:55.275Z,0
2024-02-19T01:30:11.627Z,0
2024-02-19T01:31:27.986Z,0
2024-02-19T01:32:44.338Z,0
2024-02-19T01:35:16.093Z,0
2024-02-19T01:36:32.450Z,0
2024-02-19T01:37:48.818Z,0
2024-02-19T01:39:05.174Z,0
2024-02-19T01:40:21.535Z,0
2024-02-19T01:41:37.886Z,0
2024-02-19T01:42:54.232Z,0
2024-02-19T01:44:10.599Z,0
2024-02-19T01:46:43.302Z,0
2024-02-19T01:47:59.653Z,0
2024-02-19T01:49:16.024Z,0
2024-02-19T01:51:47.772Z,0
2024-02-19T01:53:04.125Z,0
2024-02-19T01:54:20.473Z,0
2024-02-19T01:55:36.849Z,0
2024-02-19T01:58:09.552Z,0
2024-02-19T01:59:25.913Z,0
2024-02-19T02:00:42.271Z,0
2024-02-19T02:04:31.336Z,0
2024-02-19T02:05:47.676Z,0
2024-02-19T02:07:03.083Z,0
2024-02-19T02:09:35.806Z,0
2024-02-19T02:10:52.155Z,0
2024-02-19T02:13:24.865Z,0
2024-02-19T02:14:41.226Z,0
2024-02-19T02:15:57.574Z,0
2024-02-19T02:17:13.931Z,0
2024-02-19T02:18:30.283Z,0
2024-02-19T02:21:03.006Z,0
2024-02-19T02:22:19.363Z,0
2024-02-19T02:23:35.718Z,0
2024-02-19T02:26:07.468Z,0
2024-02-19T02:27:23.825Z,0
2024-02-19T02:28:40.171Z,0
2024-02-19T02:29:56.529Z,0
2024-02-19T02:31:12.888Z,0
2024-02-19T02:32:29.245Z,0
2024-02-19T02:33:45.593Z,0
2024-02-19T02:35:01.949Z,0
2024-02-19T02:36:18.318Z,0
2024-02-19T02:37:34.665Z,0
2024-02-19T02:38:51.030Z,0
2024-02-19T02:40:07.383Z,0
2024-02-19T02:41:22.784Z,0
2024-02-19T02:43:55.491Z,0
2024-02-19T02:45:11.858Z,0
2024-02-19T02:46:28.211Z,0
2024-02-19T02:47:44.558Z,0
2024-02-19T02:49:00.919Z,0
2024-02-19T02:50:17.263Z,0
2024-02-19T02:51:33.619Z,0
2024-02-19T02:52:49.045Z,0
2024-02-19T02:55:20.807Z,0
2024-02-19T02:56:37.173Z,0
2024-02-19T02:57:53.527Z,0
2024-02-19T03:00:26.224Z,0
2024-02-19T03:01:42.581Z,0
2024-02-19T03:02:58.949Z,0
2024-02-19T03:04:15.302Z,0
2024-02-19T03:06:48.012Z,0
2024-02-19T03:08:04.353Z,0
2024-02-19T03:09:19.789Z,0
2024-02-19T03:11:51.539Z,0
2024-02-19T03:13:07.904Z,0
2024-02-19T03:14:24.247Z,0
2024-02-19T03:15:40.606Z,0
2024-02-19T03:18:13.324Z,0
2024-02-19T03:19:29.681Z,0
2024-02-19T03:20:46.037Z,0
2024-02-19T03:23:18.754Z,0
2024-02-19T03:24:34.152Z,0
2024-02-19T03:25:50.509Z,0
2024-02-19T03:27:06.868Z,0
2024-02-19T03:28:23.229Z,0
2024-02-19T03:29:39.574Z,0
2024-02-19T03:30:55.926Z,0
2024-02-19T03:32:12.289Z,0
2024-02-19T03:33:28.650Z,0
2024-02-19T03:36:01.358Z,0
2024-02-19T03:37:17.715Z,0
2024-02-19T03:38:34.076Z,0
2024-02-19T03:42:23.138Z,0
2024-02-19T03:43:38.548Z,0
2024-02-19T03:46:11.254Z,0
2024-02-19T03:47:27.602Z,0
2024-02-19T03:48:43.971Z,0
2024-02-19T03:50:00.314Z,0
2024-02-19T03:52:33.021Z,0
2024-02-19T03:53:49.381Z,0
2024-02-19T03:55:05.729Z,0
2024-02-19T03:57:38.446Z,0
2024-02-19T03:58:54.802Z,0
2024-02-19T04:00:10.213Z,0
2024-02-19T04:01:26.558Z,0
2024-02-19T04:02:42.925Z,0
2024-02-19T04:03:59.282Z,0
2024-02-19T04:05:15.627Z,0
2024-02-19T04:06:31.993Z,0
2024-02-19T04:09:04.689Z,0
2024-02-19T04:11:37.399Z,0
2024-02-19T04:12:53.766Z,0
2024-02-19T04:15:26.483Z,0
2024-02-19T04:16:41.868Z,0
2024-02-19T04:17:58.227Z,0
2024-02-19T04:20:30.940Z,0
2024-02-19T04:23:03.664Z,0
2024-02-19T04:24:20.017Z,0
2024-02-19T04:26:52.723Z,0
2024-02-19T04:28:09.086Z,0
2024-02-19T04:29:25.428Z,0
2024-02-19T04:30:41.794Z,0
2024-02-19T04:31:58.148Z,0
2024-02-19T04:33:14.508Z,0
2024-02-19T04:34:29.913Z,0
2024-02-19T04:38:18.964Z,0
2024-02-19T04:39:35.319Z,0
2024-02-19T04:40:51.677Z,0
2024-02-19T04:43:24.385Z,0
2024-02-19T04:44:40.756Z,0
2024-02-19T04:45:57.104Z,0
2024-02-19T04:47:13.453Z,0
2024-02-19T04:48:29.804Z,0
2024-02-19T04:49:46.170Z,0
2024-02-19T04:51:01.581Z,0
2024-02-19T04:52:17.928Z,0
2024-02-19T04:54:50.630Z,0
2024-02-19T04:56:06.992Z,0
2024-02-19T04:57:23.361Z,0
2024-02-19T04:58:39.710Z,0
2024-02-19T04:59:56.053Z,0
2024-02-19T05:01:12.407Z,0
2024-02-19T05:02:28.767Z,0
2024-02-19T05:03:45.124Z,0
2024-02-19T05:05:01.482Z,0
2024-02-19T05:07:34.196Z,0
2024-02-19T05:08:49.608Z,0
2024-02-19T05:10:05.945Z,0
2024-02-19T05:12:38.659Z,0
2024-02-19T05:13:55.018Z,0
2024-02-19T05:15:11.374Z,0
2024-02-19T05:17:44.094Z,0
2024-02-19T05:19:00.437Z,0
2024-02-19T05:20:16.793Z,0
2024-02-19T05:21:33.163Z,0
2024-02-19T05:22:49.520Z,0
2024-02-19T05:24:05.857Z,0
2024-02-19T05:25:21.267Z,0
2024-02-19T05:26:37.623Z,0
2024-02-19T05:27:53.979Z,0
2024-02-19T05:29:10.343Z,0
2024-02-19T05:30:26.685Z,0
2024-02-19T05:31:43.043Z,0
2024-02-19T05:35:32.124Z,0
2024-02-19T05:36:48.462Z,0
2024-02-19T05:38:04.836Z,0
2024-02-19T05:40:37.544Z,0
2024-02-19T05:41:52.937Z,0
2024-02-19T05:43:09.295Z,0
2024-02-19T05:44:25.661Z,0
2024-02-19T05:46:58.373Z,0
2024-02-19T05:48:14.719Z,0
2024-02-19T05:49:31.076Z,0
2024-02-19T05:52:03.741Z,0
2024-02-19T05:53:20.055Z,0
2024-02-19T05:54:36.403Z,0
2024-02-19T05:55:52.767Z,0
2024-02-19T05:58:25.464Z,0
2024-02-19T05:59:40.837Z,0
2024-02-19T06:00:57.124Z,0
2024-02-19T06:02:13.432Z,0
2024-02-19T06:03:29.736Z,0
2024-02-19T06:04:46.048Z,0
2024-02-19T06:06:02.343Z,0
2024-02-19T06:07:18.640Z,0
2024-02-19T06:08:34.953Z,0
2024-02-19T06:09:51.250Z,0
2024-02-19T06:11:07.557Z,0
2024-02-19T06:12:23.858Z,0
2024-02-19T06:14:56.445Z,0
2024-02-19T06:16:11.799Z,0
2024-02-19T06:17:28.099Z,0
2024-02-19T06:18:44.411Z,0
2024-02-19T06:20:00.703Z,0
2024-02-19T06:21:17.009Z,0
2024-02-19T06:22:33.301Z,0
2024-02-19T06:23:49.618Z,0
2024-02-19T06:26:21.277Z,0
2024-02-19T06:27:37.580Z,0
2024-02-19T06:28:52.932Z,0
2024-02-19T06:31:25.548Z,0
2024-02-19T06:32:41.833Z,0
2024-02-19T06:33:58.138Z,5
2024-02-19T06:35:14.439Z,5
2024-02-19T06:36:30.736Z,5
2024-02-19T06:37:47.038Z,5
2024-02-19T06:39:03.344Z,5
2024-02-19T06:40:19.657Z,5
2024-02-19T06:41:35.949Z,5
2024-02-19T06:44:08.549Z,5
2024-02-19T06:46:40.216Z,5
2024-02-19T06:47:56.503Z,5
2024-02-19T06:49:12.816Z,5
2024-02-19T06:50:29.101Z,5
2024-02-19T06:51:45.413Z,5
2024-02-19T06:53:01.716Z,5
2024-02-19T06:55:34.322Z,5
2024-02-19T06:56:50.626Z,5
2024-02-19T06:58:06.911Z,5
2024-02-19T06:59:23.219Z,5
2024-02-19T07:00:39.516Z,11
2024-02-19T07:01:54.878Z,11
2024-02-19T07:03:11.165Z,11
2024-02-19T07:05:43.778Z,11
2024-02-19T07:07:00.078Z,11
2024-02-19T07:08:16.393Z,11
2024-02-19T07:09:32.691Z,11
2024-02-19T07:10:48.981Z,11
2024-02-19T07:12:05.278Z,11
2024-02-19T07:13:21.598Z,5
2024-02-19T07:14:37.887Z,11
2024-02-19T07:15:54.181Z,11
2024-02-19T07:17:10.502Z,11
2024-02-19T07:18:25.839Z,11
2024-02-19T07:19:42.151Z,11
2024-02-19T07:20:58.454Z,11
2024-02-19T07:23:31.197Z,11
2024-02-19T07:24:47.499Z,11
2024-02-19T07:26:02.843Z,11
2024-02-19T07:27:19.154Z,11
2024-02-19T07:28:35.447Z,11
2024-02-19T07:29:51.743Z,11
2024-02-19T07:31:08.053Z,11
2024-02-19T07:32:23.418Z,16
2024-02-19T07:34:55.065Z,22
2024-02-19T07:36:11.366Z,22
2024-02-19T07:37:27.682Z,22
2024-02-19T07:38:43.965Z,22
2024-02-19T07:41:15.634Z,22
2024-02-19T07:42:31.007Z,28
2024-02-19T07:43:47.304Z,28
2024-02-19T07:46:19.896Z,28
2024-02-19T07:47:36.199Z,33
2024-02-19T07:48:51.579Z,39
2024-02-19T07:50:06.924Z,45
2024-02-19T07:51:23.216Z,33
2024-02-19T07:52:39.521Z,39
2024-02-19T07:55:12.127Z,39
2024-02-19T07:56:28.432Z,33
2024-02-19T07:57:44.740Z,33
2024-02-19T07:59:01.043Z,28
2024-02-19T08:00:17.335Z,28
2024-02-19T08:02:49.930Z,22
2024-02-19T08:04:06.244Z,22
2024-02-19T08:05:22.543Z,22
2024-02-19T08:06:38.853Z,22
2024-02-19T08:07:54.203Z,22
2024-02-19T08:09:10.499Z,22
2024-02-19T08:10:26.808Z,22
2024-02-19T08:11:43.107Z,22
2024-02-19T08:12:59.408Z,22
2024-02-19T08:15:31.998Z,33
2024-02-19T08:16:48.311Z,33
2024-02-19T08:18:04.606Z,28
2024-02-19T08:19:20.916Z,28
2024-02-19T08:20:37.200Z,22
2024-02-19T08:21:53.502Z,28
2024-02-19T08:23:09.819Z,22
2024-02-19T08:24:26.246Z,22
2024-02-19T08:25:42.548Z,22
2024-02-19T08:26:58.841Z,22
2024-02-19T08:28:15.137Z,33
2024-02-19T08:29:30.514Z,28
2024-02-19T08:32:02.167Z,28
2024-02-19T08:33:18.471Z,28
2024-02-19T08:34:34.766Z,33
2024-02-19T08:35:51.064Z,39
2024-02-19T08:37:07.376Z,56
2024-02-19T08:38:23.669Z,50
2024-02-19T08:39:39.969Z,39
2024-02-19T08:40:56.274Z,39
2024-02-19T08:42:12.577Z,39
2024-02-19T08:44:45.171Z,45
2024-02-19T08:46:00.546Z,56
2024-02-19T08:47:15.904Z,45
2024-02-19T08:49:48.496Z,50
2024-02-19T08:51:04.792Z,56
2024-02-19T08:52:21.104Z,50
2024-02-19T08:53:37.407Z,50
2024-02-19T08:54:53.716Z,61
2024-02-19T08:56:10.000Z,56
2024-02-19T08:57:26.303Z,67
2024-02-19T08:58:42.606Z,78
2024-02-19T08:59:58.904Z,61
2024-02-19T09:01:15.215Z,56
2024-02-19T09:02:31.515Z,67
2024-02-19T09:03:47.823Z,67
2024-02-19T09:06:19.472Z,61
2024-02-19T09:07:35.762Z,67
2024-02-19T09:08:52.079Z,61
2024-02-19T09:10:08.380Z,61
2024-02-19T09:11:24.667Z,73
2024-02-19T09:13:57.270Z,67
2024-02-19T09:15:13.588Z,67
2024-02-19T09:17:46.183Z,73
2024-02-19T09:19:02.481Z,73
2024-02-19T09:20:18.794Z,67
2024-02-19T09:21:34.131Z,67
2024-02-19T09:22:50.436Z,61
2024-02-19T09:24:06.738Z,61
2024-02-19T09:25:23.045Z,61
2024-02-19T09:26:39.345Z,56
2024-02-19T09:27:55.653Z,56
2024-02-19T09:29:11.941Z,50
2024-02-19T09:30:28.241Z,50
2024-02-19T09:33:00.847Z,50
2024-02-19T09:35:33.456Z,45
2024-02-19T09:36:49.758Z,56
2024-02-19T09:38:06.048Z,50
2024-02-19T09:39:22.349Z,61
2024-02-19T09:41:54.938Z,56
2024-02-19T09:43:10.298Z,56
2024-02-19T09:44:26.600Z,56
2024-02-19T09:45:42.894Z,56
2024-02-19T09:46:59.202Z,61
2024-02-19T09:48:15.488Z,56
2024-02-19T09:49:31.797Z,56
2024-02-19T09:52:04.402Z,56
2024-02-19T09:53:20.710Z,56
2024-02-19T09:54:37.014Z,56
2024-02-19T09:55:53.315Z,50
2024-02-19T09:58:25.926Z,45
2024-02-19T09:59:41.248Z,50
2024-02-19T10:00:57.559Z,50
2024-02-19T10:02:13.871Z,50
2024-02-19T10:03:30.168Z,61
2024-02-19T10:04:46.470Z,56
2024-02-19T10:06:02.767Z,61
2024-02-19T10:07:19.067Z,67
2024-02-19T10:08:35.376Z,61
2024-02-19T10:09:51.659Z,67
2024-02-19T10:11:07.982Z,61
2024-02-19T10:12:24.263Z,67
2024-02-19T10:14:56.870Z,67
2024-02-19T10:16:13.180Z,90
2024-02-19T10:17:28.524Z,84
2024-02-19T10:18:44.834Z,67
2024-02-19T10:21:17.430Z,95
2024-02-19T10:22:33.741Z,95
2024-02-19T10:23:50.030Z,112
2024-02-19T10:25:06.334Z,106
2024-02-19T10:26:22.633Z,95
2024-02-19T10:27:38.943Z,95
2024-02-19T10:28:55.236Z,118
2024-02-19T10:30:11.539Z,118
2024-02-19T10:32:44.139Z,118
2024-02-19T10:35:16.752Z,118
2024-02-19T10:40:21.960Z,84
2024-02-19T10:41:38.000Z,90
2024-02-19T10:42:54.675Z,73
2024-02-19T10:44:10.991Z,67
2024-02-19T10:45:27.275Z,90
2024-02-19T10:46:43.580Z,95
2024-02-19T10:47:59.882Z,106
2024-02-19T10:49:16.196Z,106
2024-02-19T10:50:32.480Z,112
2024-02-19T10:51:48.793Z,129
2024-02-19T10:53:05.095Z,123
2024-02-19T10:54:21.401Z,140
2024-02-19T10:55:37.688Z,118
2024-02-19T10:56:53.993Z,146
2024-02-19T10:58:10.295Z,135
2024-02-19T10:59:26.591Z,135
2024-02-19T11:00:41.944Z,101
2024-02-19T11:01:58.247Z,118
2024-02-19T11:03:14.557Z,135
2024-02-19T11:04:30.863Z,95
2024-02-19T11:07:02.531Z,95
2024-02-19T11:08:18.829Z,84
2024-02-19T11:09:34.203Z,84
2024-02-19T11:10:49.547Z,95
2024-02-19T11:13:22.158Z,73
2024-02-19T11:14:38.453Z,84
2024-02-19T11:17:11.054Z,84
2024-02-19T11:18:27.359Z,61
2024-02-19T11:19:43.659Z,50
2024-02-19T11:20:59.949Z,56
2024-02-19T11:23:32.566Z,73
2024-02-19T11:24:48.870Z,90
2024-02-19T11:26:05.161Z,106
2024-02-19T11:27:20.533Z,101
2024-02-19T11:28:35.889Z,90
2024-02-19T11:29:52.191Z,101
2024-02-19T11:32:24.792Z,90
2024-02-19T11:36:13.693Z,140
2024-02-19T11:37:29.990Z,146
2024-02-19T11:38:46.295Z,151
2024-02-19T11:41:18.905Z,135
2024-02-19T11:42:35.211Z,129
2024-02-19T11:43:51.495Z,140
2024-02-19T11:45:06.851Z,146
2024-02-19T11:46:23.160Z,146
2024-02-19T11:47:39.460Z,140
2024-02-19T11:48:55.757Z,140
2024-02-19T11:50:12.060Z,123
2024-02-19T11:51:28.370Z,112
2024-02-19T11:52:44.672Z,123
2024-02-19T11:54:00.969Z,135
2024-02-19T11:55:17.262Z,129
2024-02-19T11:56:33.572Z,112
2024-02-19T11:57:48.922Z,123
2024-02-19T11:59:05.238Z,123
2024-02-19T12:00:21.536Z,112
2024-02-19T12:01:37.835Z,78
2024-02-19T12:02:53.204Z,56
2024-02-19T12:04:08.550Z,50
2024-02-19T12:05:24.847Z,45
2024-02-19T12:06:41.162Z,50
2024-02-19T12:07:57.447Z,73
2024-02-19T12:09:13.755Z,50
2024-02-19T12:10:30.052Z,61
2024-02-19T12:11:46.358Z,61
2024-02-19T12:13:02.664Z,50
2024-02-19T12:14:18.957Z,61
2024-02-19T12:15:34.330Z,50
2024-02-19T12:16:49.691Z,45
2024-02-19T12:18:05.992Z,56
2024-02-19T12:19:22.295Z,67
2024-02-19T12:20:38.593Z,95
2024-02-19T12:21:54.882Z,73
2024-02-19T12:23:11.193Z,73
2024-02-19T12:24:27.483Z,84
2024-02-19T12:27:00.098Z,39
2024-02-19T12:28:16.398Z,61
2024-02-19T12:29:32.692Z,45
2024-02-19T12:30:49.000Z,45
2024-02-19T12:32:05.308Z,39
2024-02-19T12:33:21.609Z,45
2024-02-19T12:34:36.960Z,50
2024-02-19T12:35:53.256Z,45
2024-02-19T12:37:09.562Z,50
2024-02-19T12:38:25.856Z,67
2024-02-19T12:39:42.155Z,56
2024-02-19T12:40:58.463Z,73
2024-02-19T12:42:14.762Z,50
2024-02-19T12:43:31.061Z,56
2024-02-19T12:44:47.362Z,78
2024-02-19T12:46:03.663Z,67
2024-02-19T12:47:19.963Z,67
2024-02-19T12:48:36.265Z,61
2024-02-19T12:49:52.576Z,61
2024-02-19T12:52:24.228Z,73
2024-02-19T12:54:56.837Z,50
2024-02-19T12:56:13.127Z,90
2024-02-19T12:57:29.430Z,95
2024-02-19T12:58:45.731Z,90
2024-02-19T13:01:18.344Z,95
2024-02-19T13:02:33.712Z,95
2024-02-19T13:03:49.062Z,84
2024-02-19T13:07:37.965Z,78
2024-02-19T13:08:54.259Z,90
2024-02-19T13:11:26.862Z,61
2024-02-19T13:12:43.168Z,67
2024-02-19T13:13:59.459Z,56
2024-02-19T13:15:15.774Z,39
2024-02-19T13:16:32.075Z,33
2024-02-19T13:17:48.365Z,33
2024-02-19T13:19:03.749Z,50
2024-02-19T13:20:19.088Z,56
2024-02-19T13:21:35.391Z,50
2024-02-19T13:22:51.687Z,84
2024-02-19T13:24:07.997Z,95
2024-02-19T13:25:24.308Z,90
2024-02-19T13:26:40.608Z,61
2024-02-19T13:27:56.897Z,61
2024-02-19T13:30:29.509Z,95
2024-02-19T13:31:45.811Z,112
2024-02-19T13:33:02.103Z,129
2024-02-19T13:34:18.409Z,146
2024-02-19T13:35:34.720Z,140
2024-02-19T13:36:50.061Z,129
2024-02-19T13:38:06.373Z,135
2024-02-19T13:39:22.663Z,151
2024-02-19T13:40:38.969Z,140
2024-02-19T13:41:55.269Z,157
2024-02-19T13:43:11.581Z,129
2024-02-19T13:44:27.871Z,129
2024-02-19T13:47:00.483Z,106
2024-02-19T13:50:49.374Z,112
2024-02-19T13:52:05.682Z,106
2024-02-19T13:53:21.988Z,101
2024-02-19T13:54:38.288Z,90
2024-02-19T13:57:09.935Z,101
2024-02-19T13:58:26.241Z,106
2024-02-19T13:59:42.539Z,101
2024-02-19T14:00:58.845Z,95
2024-02-19T14:03:31.450Z,106
2024-02-19T14:04:47.747Z,112
2024-02-19T14:06:04.044Z,101
2024-02-19T14:07:20.358Z,101
2024-02-19T14:08:36.661Z,101
2024-02-19T14:09:52.962Z,95
2024-02-19T14:11:09.265Z,90
2024-02-19T14:12:25.559Z,90
2024-02-19T14:13:40.914Z,90
2024-02-19T14:14:57.202Z,95
2024-02-19T14:16:13.519Z,90
2024-02-19T14:17:29.806Z,84
2024-02-19T14:18:46.122Z,90
2024-02-19T14:20:02.410Z,84
2024-02-19T14:21:18.725Z,84
2024-02-19T14:23:51.319Z,84
2024-02-19T14:25:07.628Z,78
2024-02-19T14:27:40.230Z,78
2024-02-19T14:28:56.516Z,78
2024-02-19T14:30:11.883Z,84
2024-02-19T14:31:28.177Z,84
2024-02-19T14:32:44.480Z,78
2024-02-19T14:34:00.780Z,78
2024-02-19T14:35:17.073Z,67
2024-02-19T14:37:49.689Z,61
2024-02-19T14:39:05.990Z,61
2024-02-19T14:40:22.277Z,61
2024-02-19T14:41:38.595Z,67
2024-02-19T14:42:54.880Z,67
2024-02-19T14:44:11.186Z,61
2024-02-19T14:45:27.503Z,61
2024-02-19T14:46:43.793Z,67
2024-02-19T14:47:59.142Z,67
2024-02-19T14:49:15.444Z,67
2024-02-19T14:50:31.754Z,73
2024-02-19T14:51:48.047Z,73
2024-02-19T14:53:04.357Z,67
2024-02-19T14:55:36.958Z,61
2024-02-19T14:56:53.246Z,61
2024-02-19T14:58:09.555Z,56
2024-02-19T14:59:25.864Z,50
2024-02-19T15:01:58.470Z,45
2024-02-19T15:03:14.765Z,45
2024-02-19T15:07:02.721Z,45
2024-02-19T15:08:19.009Z,45
2024-02-19T15:09:35.314Z,39
2024-02-19T15:10:51.622Z,39
2024-02-19T15:12:07.921Z,39
2024-02-19T15:13:24.212Z,39
2024-02-19T15:14:40.533Z,28
2024-02-19T15:15:56.818Z,39
2024-02-19T15:18:29.437Z,33
2024-02-19T15:19:45.731Z,33
2024-02-19T15:21:02.024Z,33
2024-02-19T15:22:17.377Z,33
2024-02-19T15:23:33.679Z,33
2024-02-19T15:24:49.974Z,33
2024-02-19T15:26:06.292Z,28
2024-02-19T15:27:22.594Z,28
2024-02-19T15:28:38.880Z,22
2024-02-19T15:29:55.198Z,28
2024-02-19T15:31:11.000Z,28
2024-02-19T15:32:27.793Z,28
2024-02-19T15:33:43.157Z,28
2024-02-19T15:34:58.512Z,22
2024-02-19T15:36:14.820Z,22
2024-02-19T15:37:31.124Z,22
2024-02-19T15:38:47.422Z,22
2024-02-19T15:40:03.724Z,22
2024-02-19T15:41:20.014Z,22
2024-02-19T15:43:52.619Z,16
2024-02-19T15:46:25.234Z,16
2024-02-19T15:48:57.838Z,16
2024-02-19T15:50:13.192Z,16
2024-02-19T15:52:45.798Z,16
2024-02-19T15:54:01.146Z,16
2024-02-19T15:55:17.460Z,16
2024-02-19T15:56:33.743Z,16
2024-02-19T15:57:50.052Z,16
2024-02-19T15:59:06.348Z,16
2024-02-19T16:00:22.647Z,11
2024-02-19T16:01:38.966Z,11
2024-02-19T16:04:11.568Z,11
2024-02-19T16:05:27.870Z,11
2024-02-19T16:06:44.161Z,11
2024-02-19T16:09:16.776Z,5
2024-02-19T16:10:33.067Z,5
2024-02-19T16:11:48.415Z,5
2024-02-19T16:13:03.781Z,5
2024-02-19T16:14:20.092Z,5
2024-02-19T16:15:36.393Z,0
2024-02-19T16:16:52.694Z,0
2024-02-19T16:18:08.978Z,0
2024-02-19T16:19:25.285Z,0
2024-02-19T16:21:57.885Z,0
2024-02-19T16:23:14.187Z,0
2024-02-19T16:24:30.492Z,0
2024-02-19T16:25:46.786Z,0
2024-02-19T16:27:03.088Z,0
2024-02-19T16:28:19.405Z,0
2024-02-19T16:29:34.756Z,0
2024-02-19T16:32:07.349Z,0
2024-02-19T16:33:23.650Z,0
2024-02-19T16:34:39.948Z,0
2024-02-19T16:35:56.253Z,0
2024-02-19T16:37:12.554Z,0
2024-02-19T16:38:28.857Z,0
2024-02-19T16:41:01.467Z,0
2024-02-19T16:43:34.065Z,0
2024-02-19T16:44:50.367Z,0
2024-02-19T16:46:05.726Z,0
2024-02-19T16:47:22.010Z,0
2024-02-19T16:49:54.620Z,0
2024-02-19T16:51:10.924Z,0
2024-02-19T16:52:27.217Z,0
2024-02-19T16:53:43.528Z,0
2024-02-19T16:54:59.831Z,0
2024-02-19T16:56:16.132Z,0
2024-02-19T16:57:32.439Z,0
2024-02-19T16:58:48.737Z,0
2024-02-19T17:00:05.093Z,0
2024-02-19T17:01:21.438Z,0
2024-02-19T17:02:36.850Z,0
2024-02-19T17:03:53.192Z,0
2024-02-19T17:06:25.921Z,0
2024-02-19T17:07:42.259Z,0
2024-02-19T17:08:58.631Z,0
2024-02-19T17:10:14.976Z,0
2024-02-19T17:12:47.696Z,0
2024-02-19T17:14:04.048Z,0
2024-02-19T17:15:20.395Z,0
2024-02-19T17:17:53.110Z,0
2024-02-19T17:19:09.591Z,0
2024-02-19T17:20:25.940Z,0
2024-02-19T17:21:42.300Z,0
2024-02-19T17:24:15.014Z,0
2024-02-19T17:25:31.372Z,0
2024-02-19T17:26:47.732Z,0
2024-02-19T17:28:04.077Z,0
2024-02-19T17:29:20.414Z,0
2024-02-19T17:30:36.780Z,0
2024-02-19T17:31:53.140Z,0
2024-02-19T17:35:42.201Z,0
2024-02-19T17:36:57.597Z,0
2024-02-19T17:38:13.973Z,0
2024-02-19T17:42:03.029Z,0
2024-02-19T17:43:19.384Z,0
2024-02-19T17:44:35.734Z,0
2024-02-19T17:47:08.449Z,0
2024-02-19T17:48:24.791Z,0
2024-02-19T17:49:41.164Z,0
2024-02-19T17:50:57.513Z,0
2024-02-19T17:52:13.866Z,0
2024-02-19T17:53:30.218Z,0
2024-02-19T17:54:45.635Z,0
2024-02-19T17:56:01.985Z,0
2024-02-19T17:59:51.052Z,0
2024-02-19T18:01:07.406Z,0
2024-02-19T18:03:40.125Z,0
2024-02-19T18:04:56.479Z,0
2024-02-19T18:06:12.833Z,0
2024-02-19T18:07:29.183Z,0
2024-02-19T18:08:45.530Z,0
2024-02-19T18:10:01.898Z,0
2024-02-19T18:11:17.306Z,0
2024-02-19T18:12:33.656Z,0
2024-02-19T18:15:06.366Z,0
2024-02-19T18:16:22.717Z,0
2024-02-19T18:17:39.080Z,0
2024-02-19T18:21:28.140Z,0
2024-02-19T18:22:44.494Z,0
2024-02-19T18:24:00.848Z,0
2024-02-19T18:26:33.557Z,0
2024-02-19T18:27:48.966Z,0
2024-02-19T18:29:05.311Z,0
2024-02-19T18:30:21.683Z,0
2024-02-19T18:32:54.379Z,0
2024-02-19T18:34:10.743Z,0
2024-02-19T18:35:27.105Z,0
2024-02-19T18:39:16.172Z,0
2024-02-19T18:40:32.514Z,0
2024-02-19T18:41:48.880Z,0
2024-02-19T18:43:05.236Z,0
2024-02-19T18:44:20.640Z,0
2024-02-19T18:45:36.998Z,0
2024-02-19T18:46:53.343Z,0
2024-02-19T18:49:26.056Z,0
2024-02-19T18:50:42.415Z,0
2024-02-19T18:51:58.777Z,0
2024-02-19T18:55:47.835Z,0
2024-02-19T18:58:20.545Z,0
2024-02-19T19:00:53.267Z,0
2024-02-19T19:02:08.676Z,0
2024-02-19T19:03:25.015Z,0
2024-02-19T19:04:41.386Z,0
2024-02-19T19:07:14.088Z,0
2024-02-19T19:08:30.434Z,0
2024-02-19T19:09:46.804Z,0
2024-02-19T19:12:19.507Z,0
2024-02-19T19:13:35.871Z,0
2024-02-19T19:14:52.229Z,0
2024-02-19T19:16:08.583Z,0
2024-02-19T19:17:24.943Z,0
2024-02-19T19:18:40.337Z,0
2024-02-19T19:19:56.689Z,0
2024-02-19T19:21:13.047Z,0
2024-02-19T19:23:45.770Z,0
2024-02-19T19:25:02.113Z,0
2024-02-19T19:26:18.471Z,0
2024-02-19T19:27:34.828Z,0
2024-02-19T19:30:07.537Z,0
2024-02-19T19:31:23.902Z,0
2024-02-19T19:32:40.253Z,0
2024-02-19T19:35:12.953Z,0
2024-02-19T19:36:29.312Z,0
2024-02-19T19:37:44.711Z,0
2024-02-19T19:39:01.070Z,0
2024-02-19T19:40:17.439Z,0
2024-02-19T19:41:33.778Z,0
2024-02-19T19:42:50.132Z,0
2024-02-19T19:44:06.502Z,0
2024-02-19T19:46:39.197Z,0
2024-02-19T19:47:55.572Z,0
2024-02-19T19:49:11.921Z,0
2024-02-19T19:50:28.279Z,0
2024-02-19T19:53:00.988Z,0
2024-02-19T19:54:16.386Z,0
2024-02-19T19:55:32.743Z,0
2024-02-19T19:58:05.450Z,0
2024-02-19T19:59:21.821Z,0
2024-02-19T20:00:38.173Z,0
2024-02-19T20:01:54.516Z,0
2024-02-19T20:03:10.880Z,0
2024-02-19T20:04:27.241Z,0
2024-02-19T20:05:43.596Z,0
2024-02-19T20:06:59.948Z,0
2024-02-19T20:09:32.658Z,0
2024-02-19T20:12:05.377Z,0
2024-02-19T20:13:20.776Z,0
2024-02-19T20:14:37.119Z,0
2024-02-19T20:15:53.482Z,0
2024-02-19T20:17:09.842Z,0
2024-02-19T20:18:26.192Z,0
2024-02-19T20:19:42.555Z,0
2024-02-19T20:20:58.895Z,0
2024-02-19T20:22:15.250Z,0
2024-02-19T20:23:31.623Z,0
2024-02-19T20:24:47.966Z,0
2024-02-19T20:26:04.336Z,0
2024-02-19T20:27:20.678Z,0
2024-02-19T20:28:36.105Z,0
2024-02-19T20:29:52.450Z,0
2024-02-19T20:31:08.801Z,0
2024-02-19T20:32:25.164Z,0
2024-02-19T20:33:41.525Z,0
2024-02-19T20:34:57.866Z,0
2024-02-19T20:36:13.297Z,0
2024-02-19T20:37:28.704Z,0
2024-02-19T20:38:45.055Z,0
2024-02-19T20:40:01.409Z,0
2024-02-19T20:41:17.767Z,0
2024-02-19T20:42:34.132Z,0
2024-02-19T20:43:50.475Z,0
2024-02-19T20:45:06.837Z,0
2024-02-19T20:46:23.192Z,0
2024-02-19T20:47:39.538Z,0
2024-02-19T20:50:12.249Z,0
2024-02-19T20:51:28.613Z,0
2024-02-19T20:52:44.975Z,0
2024-02-19T20:55:16.724Z,0
2024-02-19T20:56:33.078Z,0
2024-02-19T20:57:48.511Z,0
2024-02-19T20:59:03.903Z,0
2024-02-19T21:01:36.616Z,0
2024-02-19T21:02:52.970Z,0
2024-02-19T21:04:09.341Z,0
2024-02-19T21:06:42.042Z,0
2024-02-19T21:07:58.391Z,0
2024-02-19T21:09:14.754Z,0
2024-02-19T21:14:20.173Z,0
2024-02-19T21:15:36.540Z,0
2024-02-19T21:16:51.929Z,0
2024-02-19T21:18:08.295Z,0
2024-02-19T21:19:24.651Z,0
2024-02-19T21:20:40.998Z,0
2024-02-19T21:21:57.357Z,0
2024-02-19T21:23:13.708Z,0
2024-02-19T21:24:30.075Z,0
2024-02-19T21:25:46.437Z,0
2024-02-19T21:27:02.788Z,0
2024-02-19T21:29:35.500Z,0
2024-02-19T21:30:51.842Z,0
2024-02-19T21:32:08.208Z,0
2024-02-19T21:33:23.612Z,0
2024-02-19T21:35:56.316Z,0
2024-02-19T21:37:12.676Z,0
2024-02-19T21:38:29.022Z,0
2024-02-19T21:39:45.380Z,0
2024-02-19T21:41:01.731Z,0
2024-02-19T21:42:18.089Z,0
2024-02-19T21:43:34.453Z,0
2024-02-19T21:44:50.816Z,0
2024-02-19T21:47:23.517Z,0
2024-02-19T21:48:39.885Z,0
2024-02-19T21:49:56.232Z,0
2024-02-19T21:52:27.994Z,0
2024-02-19T21:53:44.342Z,0
2024-02-19T21:55:00.713Z,0
2024-02-19T21:56:17.062Z,0
2024-02-19T21:58:49.761Z,0
2024-02-19T22:00:06.124Z,0
2024-02-19T22:01:22.481Z,0
2024-02-19T22:03:55.181Z,0
2024-02-19T22:05:11.551Z,0